Time;durP1;ratioP1;P1;durP2;ratioP2;P2;SDS_P1;SDS_P2;PMS_P1;PMS_P2;Temp;Humidity;BMP_temperature;BMP_pressure;BME280_temperature;BME280_humidity;BME280_pressure;Samples;Min_cycle;Max_cycle;Signal;HPM_P1;HPM_P2
2023/04/29 15:19:25;;;;;;;31.60;18.20;;;;;;;15.84;53.79;96161.64;103643;1313;558617;-84
2023/04/29 15:22:51;;;;;;;20.90;12.60;;;;;;;15.61;54.24;96162.20;105335;1285;416733;-83
2023/04/29 15:26:18;;;;;;;18.00;9.80;;;;;;;15.45;55.10;96167.27;101830;1279;4623655;-83
2023/04/29 15:29:45;;;;;;;10.20;5.90;;;;;;;15.26;55.38;96168.17;106636;1275;143687;-89
2023/04/29 15:33:12;;;;;;;5.60;3.80;;;;;;;15.08;55.49;96178.15;102502;1274;5405466;-87
2023/04/29 15:36:40;;;;;;;5.90;4.90;;;;;;;14.95;55.60;96180.69;106466;1274;137940;-88
2023/04/29 15:39:59;;;;;;;6.30;4.40;;;;;;;14.84;56.93;96176.91;106535;1272;25525;-86
2023/04/29 15:43:19;;;;;;;;;;;;;;;;;;;;;
2023/04/29 15:46:39;;;;;;;4.30;3.10;;;;;;;14.65;57.69;96182.36;106475;1272;137007;-85
2023/04/29 15:50:06;;;;;;;5.30;4.80;;;;;;;14.59;57.57;96181.95;106762;1275;25346;-85
2023/04/29 15:53:33;;;;;;;12.30;9.10;;;;;;;14.55;57.19;96187.70;106476;1273;136935;-84
2023/04/29 15:56:59;;;;;;;29.40;18.40;;;;;;;14.51;57.35;96182.21;106596;1272;22977;-83
2023/04/29 16:00:27;;;;;;;25.90;15.60;;;;;;;14.40;57.54;96181.16;106629;1272;137093;-85
2023/04/29 16:03:46;;;;;;;48.30;24.90;;;;;;;14.30;57.91;96186.08;107010;1272;22535;-84
2023/04/29 16:07:05;;;;;;;;;;;;;;;;;;;;;
2023/04/29 16:10:23;;;;;;;102.70;68.10;;;;;;;14.20;58.58;96185.17;106497;1272;137696;-86
2023/04/29 16:13:50;;;;;;;36.50;26.00;;;;;;;14.19;58.85;96185.14;106642;1272;22535;-84
2023/04/29 16:17:17;;;;;;;43.30;23.70;;;;;;;14.18;59.17;96190.85;106477;1272;137203;-85
2023/04/29 16:20:38;;;;;;;13.40;9.50;;;;;;;14.15;59.91;96196.33;106507;1274;22557;-87
2023/04/29 16:24:06;;;;;;;13.50;9.10;;;;;;;14.08;59.69;96200.27;106632;1276;136947;-87
2023/04/29 16:27:32;;;;;;;13.60;10.50;;;;;;;14.00;60.08;96201.17;106508;1280;22529;-85
2023/04/29 16:30:59;;;;;;;46.30;17.30;;;;;;;13.91;60.34;96206.39;106633;1274;22625;-84
2023/04/29 16:34:25;;;;;;;26.70;14.80;;;;;;;13.89;60.53;96206.44;106560;1272;137276;-86
2023/04/29 16:37:54;;;;;;;109.50;35.20;;;;;;;13.88;60.96;96204.64;106693;1272;24207;-88
2023/04/29 16:41:16;;;;;;;;;;;;;;;;;;;;;
2023/04/29 16:44:45;;;;;;;21.80;11.60;;;;;;;13.82;61.74;96204.81;106861;1275;22606;-82
2023/04/29 16:48:05;;;;;;;32.70;19.00;;;;;;;13.76;61.99;96206.59;106437;1272;137193;-89
2023/04/29 16:51:32;;;;;;;16.30;13.40;;;;;;;13.67;62.14;96208.88;106647;1272;24207;-83
2023/04/29 16:55:00;;;;;;;49.50;24.30;;;;;;;13.60;62.29;96211.18;106663;1271;24283;-85
2023/04/29 16:58:26;;;;;;;16.40;11.40;;;;;;;13.54;62.96;96213.96;106728;1272;23967;-84
2023/04/29 17:01:52;;;;;;;8.30;7.20;;;;;;;13.42;63.52;96213.30;106726;1272;23904;-85
2023/04/29 17:05:19;;;;;;;22.70;12.10;;;;;;;13.30;63.60;96216.08;106543;1272;136751;-84
2023/04/29 17:08:45;;;;;;;15.30;11.10;;;;;;;13.23;64.00;96213.85;106637;1276;25665;-85
2023/04/29 17:11:56;;;;;;;;;;;;;;;;;;;;;
2023/04/29 17:15:19;;;;;;;7.70;6.90;;;;;;;13.19;64.77;96224.61;106498;1280;25527;-88
2023/04/29 17:18:45;;;;;;;24.50;14.10;;;;;;;13.20;64.63;96219.92;106738;1272;137523;-83
2023/04/29 17:22:11;;;;;;;56.70;28.60;;;;;;;13.25;64.85;96221.08;106912;1278;22646;-90
2023/04/29 17:25:37;;;;;;;48.60;28.40;;;;;;;13.27;65.40;96220.06;106702;1272;24177;-85
2023/04/29 17:29:04;;;;;;;234.50;122.50;;;;;;;13.35;66.93;96226.58;106649;1259;137415;-88
2023/04/29 17:32:37;;;;;;;147.10;85.60;;;;;;;13.32;67.82;96230.09;106731;1272;22527;-85
2023/04/29 17:36:00;;;;;;;124.60;70.00;;;;;;;13.27;68.43;96234.11;106937;1272;137335;-83
2023/04/29 17:39:08;;;;;;;;;;;;;;;;;;;;;
2023/04/29 17:42:35;;;;;;;6.70;6.00;;;;;;;13.17;69.35;96237.27;106447;1276;138098;-89
2023/04/29 17:46:02;;;;;;;4.60;3.90;;;;;;;13.17;69.70;96238.10;106508;1272;23540;-85
2023/04/29 17:49:29;;;;;;;4.40;4.00;;;;;;;13.15;69.93;96237.64;106517;1272;25415;-88
2023/04/29 17:52:55;;;;;;;5.70;3.90;;;;;;;13.14;70.32;96241.30;106415;1276;137701;-86
2023/04/29 17:56:22;;;;;;;5.70;4.60;;;;;;;13.12;70.91;96240.02;106441;1272;24237;-87
2023/04/29 17:59:48;;;;;;;4.10;3.30;;;;;;;13.07;70.97;96244.45;106354;1272;137148;-85
2023/04/29 18:03:15;;;;;;;18.90;10.00;;;;;;;12.98;70.38;96245.79;106495;1272;22587;-91
2023/04/29 18:06:42;;;;;;;9.70;7.20;;;;;;;12.95;70.42;96249.73;106406;1272;137891;-88
2023/04/29 18:10:09;;;;;;;5.60;5.00;;;;;;;12.93;70.59;96253.02;106536;1272;24388;-88
2023/04/29 18:13:35;;;;;;;5.70;4.70;;;;;;;12.87;71.15;96252.86;106654;1274;22646;-90
2023/04/29 18:16:59;;;;;;;;;;;;;;;;;;;;;
2023/04/29 18:20:27;;;;;;;6.20;5.60;;;;;;;12.72;71.64;96259.45;106561;1272;22534;-85
2023/04/29 18:23:52;;;;;;;5.40;4.90;;;;;;;12.65;71.41;96261.19;106358;1273;138374;-89
2023/04/29 18:27:12;;;;;;;5.50;4.80;;;;;;;12.60;71.19;96261.79;106554;1272;25373;-91
2023/04/29 18:30:38;;;;;;;16.60;9.30;;;;;;;12.59;71.49;96261.95;106555;1272;137703;-84
2023/04/29 18:34:04;;;;;;;9.80;7.10;;;;;;;12.59;71.36;96266.36;109995;1274;23016;-84
2023/04/29 18:37:31;;;;;;;6.60;5.70;;;;;;;12.60;71.41;96268.48;108902;1272;109520;-85
2023/04/29 18:40:58;;;;;;;8.70;6.80;;;;;;;12.60;70.90;96270.84;106212;1276;137593;-88
2023/04/29 18:44:25;;;;;;;17.10;15.60;;;;;;;12.60;71.30;96272.61;106549;1280;22533;-84
2023/04/29 18:47:42;;;;;;;17.70;16.10;;;;;;;12.56;70.92;96275.74;106508;1272;137321;-87
2023/04/29 18:51:08;;;;;;;8.90;8.10;;;;;;;12.56;71.51;96277.83;106572;1272;24307;-87
2023/04/29 18:54:28;;;;;;;14.30;12.80;;;;;;;12.57;71.35;96283.92;106710;1272;138937;-84
2023/04/29 18:57:54;;;;;;;10.00;7.30;;;;;;;12.61;71.43;96280.52;107029;1272;22539;-84
2023/04/29 19:01:21;;;;;;;13.60;8.80;;;;;;;12.64;71.57;96287.05;106629;1273;25488;-84
2023/04/29 19:04:47;;;;;;;29.30;16.20;;;;;;;12.63;71.36;96292.95;106530;1275;22583;-86
2023/04/29 19:08:15;;;;;;;12.70;10.30;;;;;;;12.60;71.34;96298.04;106331;1280;22533;-85
2023/04/29 19:11:39;;;;;;;32.10;17.50;;;;;;;12.60;71.28;96299.40;106570;1272;137601;-85
2023/04/29 19:15:07;;;;;;;17.30;11.30;;;;;;;12.57;71.53;96301.67;106576;1272;22528;-85
2023/04/29 19:18:32;;;;;;;25.30;14.50;;;;;;;12.56;71.47;96305.45;106300;1278;137435;-86
2023/04/29 19:21:51;;;;;;;21.60;11.90;;;;;;;12.53;71.88;96304.29;106615;1272;22550;-84
2023/04/29 19:25:12;;;;;;;;;;;;;;;;;;;;;
2023/04/29 19:28:39;;;;;;;21.20;12.90;;;;;;;12.55;72.06;96308.86;106675;1272;22534;-88
2023/04/29 19:32:06;;;;;;;25.10;15.90;;;;;;;12.56;72.23;96312.39;106561;1272;22546;-84
2023/04/29 19:35:25;;;;;;;18.20;11.80;;;;;;;12.56;72.38;96310.02;106461;1272;137571;-92
2023/04/29 19:38:52;;;;;;;17.20;11.10;;;;;;;12.55;72.59;96309.73;106622;1272;22539;-88
2023/04/29 19:42:18;;;;;;;33.30;19.70;;;;;;;12.53;72.86;96312.02;106542;1272;137877;-87
2023/04/29 19:45:38;;;;;;;17.20;10.20;;;;;;;12.49;73.04;96311.70;107046;1276;23933;-84
2023/04/29 19:48:54;;;;;;;41.50;27.40;;;;;;;12.51;73.23;96314.91;106857;1272;137969;-85
2023/04/29 19:52:13;;;;;;;70.70;34.20;;;;;;;12.54;73.21;96317.56;106955;1275;24081;-85
2023/04/29 19:55:35;;;;;;;75.00;34.20;;;;;;;12.56;73.33;96319.41;107385;1272;23372;-83
2023/04/29 19:59:02;;;;;;;66.70;34.40;;;;;;;12.61;73.42;96319.98;107308;1272;25094;-83
2023/04/29 20:02:29;;;;;;;64.90;33.50;;;;;;;12.63;73.68;96318.81;107115;1272;22539;-83
2023/04/29 20:05:57;;;;;;;39.70;21.90;;;;;;;12.61;73.61;96319.98;107037;1272;138189;-83
2023/04/29 20:09:19;;;;;;;;;;;;;;;;;;;;;
2023/04/29 20:12:47;;;;;;;74.90;36.90;;;;;;;12.59;74.10;96313.47;106987;1271;137906;-83
2023/04/29 20:16:14;;;;;;;86.10;42.30;;;;;;;12.61;74.34;96316.09;109880;1272;22280;-83
2023/04/29 20:19:41;;;;;;;59.40;31.30;;;;;;;12.60;74.96;96320.17;109780;1274;138037;-83
2023/04/29 20:23:08;;;;;;;52.90;27.30;;;;;;;12.59;75.38;96326.91;109907;1280;22177;-84
2023/04/29 20:26:33;;;;;;;;;;;;;;;;;;;;;
2023/04/29 20:30:00;;;;;;;78.50;38.10;;;;;;;12.46;76.68;96339.92;109872;1274;138037;-83
2023/04/29 20:33:19;;;;;;;30.90;19.10;;;;;;;12.41;77.12;96344.76;109860;1273;22356;-84
2023/04/29 20:36:47;;;;;;;16.10;10.60;;;;;;;12.36;77.52;96355.98;109800;1278;138077;-83
2023/04/29 20:40:13;;;;;;;32.10;17.00;;;;;;;12.26;78.07;96358.44;110051;1280;23111;-83
2023/04/29 20:43:39;;;;;;;36.30;20.20;;;;;;;12.16;79.63;96358.52;109643;1277;137145;-83
2023/04/29 20:47:06;;;;;;;49.00;25.20;;;;;;;12.09;79.76;96356.34;107015;1272;23296;-83
2023/04/29 20:50:32;;;;;;;60.30;28.60;;;;;;;12.09;80.52;96355.30;109898;1279;22194;-83
2023/04/29 20:53:59;;;;;;;34.40;20.60;;;;;;;12.08;80.97;96357.89;109780;1279;138595;-83
2023/04/29 20:57:26;;;;;;;26.70;17.80;;;;;;;12.07;81.39;96360.94;109793;1279;23345;-83
2023/04/29 21:00:45;;;;;;;;;;;;;;;;;;;;;
2023/04/29 21:04:05;;;;;;;;;;;;;;;;;;;;;
2023/04/29 21:07:33;;;;;;;35.90;26.40;;;;;;;12.06;82.77;96372.30;109986;1273;137661;-83
2023/04/29 21:10:51;;;;;;;;;;;;;;;;;;;;;
2023/04/29 21:14:19;;;;;;;;;;;;;;;;;;;;;
2023/04/29 21:17:45;;;;;;;;;;;;;;;;;;;;;
2023/04/29 21:20:58;;;;;;;29.50;25.00;;;;;;;12.05;84.32;96380.63;109962;1275;23050;-83
2023/04/29 21:24:25;;;;;;;25.10;21.70;;;;;;;12.03;84.63;96381.85;108510;1278;137590;-83
2023/04/29 21:27:52;;;;;;;60.80;33.80;;;;;;;11.93;85.05;96385.28;106971;1273;25512;-83
2023/04/29 21:31:18;;;;;;;47.90;29.70;;;;;;;11.88;85.24;96385.09;106831;1275;138343;-83
2023/04/29 21:34:35;;;;;;;;;;;;;;;;;;;;;
2023/04/29 21:38:02;;;;;;;47.70;29.20;;;;;;;12.04;86.17;96382.55;106887;1274;22543;-83
2023/04/29 21:41:13;;;;;;;;;;;;;;;;;;;;;
2023/04/29 21:44:39;;;;;;;;;;;;;;;;;;;;;
2023/04/29 21:47:58;;;;;;;;;;;;;;;;;;;;;
2023/04/29 21:51:27;;;;;;;39.70;21.70;;;;;;;11.93;87.02;96391.97;109825;1281;23036;-83
2023/04/29 21:54:53;;;;;;;42.80;25.00;;;;;;;11.87;87.00;96393.52;109735;1281;138428;-83
2023/04/29 21:58:12;;;;;;;32.20;22.00;;;;;;;11.86;87.39;96399.20;108595;1275;24243;-83
2023/04/29 22:05:04;;;;;;;18.50;15.20;;;;;;;11.70;89.38;96403.45;107103;1276;24391;-83
2023/04/29 22:08:31;;;;;;;24.60;17.00;;;;;;;11.56;89.71;96401.06;106777;1275;138408;-82
2023/04/29 22:11:58;;;;;;;25.90;17.60;;;;;;;11.48;90.02;96399.77;108616;1274;22530;-86
2023/04/29 22:15:25;;;;;;;22.50;17.60;;;;;;;11.41;91.19;96401.64;106856;1275;138643;-83
2023/04/29 22:18:53;;;;;;;24.90;18.10;;;;;;;11.38;91.06;96404.56;107111;1280;138901;-82
2023/04/29 22:22:12;;;;;;;30.70;21.00;;;;;;;11.40;91.51;96403.76;106948;1275;27433;-83
2023/04/29 22:25:38;;;;;;;32.40;22.30;;;;;;;11.35;91.52;96400.64;109811;1279;22174;-83
2023/04/29 22:28:51;;;;;;;29.20;20.40;;;;;;;11.28;92.17;96400.55;107491;1281;137630;-82
2023/04/29 22:32:17;;;;;;;24.30;17.20;;;;;;;11.28;91.84;96402.13;106982;1275;22529;-84
2023/04/29 22:35:44;;;;;;;16.30;13.00;;;;;;;11.32;92.14;96404.91;106793;1275;138303;-82
2023/04/29 22:39:11;;;;;;;19.00;15.40;;;;;;;11.33;92.07;96399.42;106883;1273;24254;-83
2023/04/29 22:42:35;;;;;;;;;;;;;;;;;;;;;
2023/04/29 22:46:04;;;;;;;18.20;14.90;;;;;;;11.41;92.36;96398.56;106868;1275;25550;-83
2023/04/29 22:49:15;;;;;;;;;;;;;;;;;;;;;
2023/04/29 22:52:35;;;;;;;14.30;12.70;;;;;;;11.49;92.07;96405.82;109796;1281;138579;-83
2023/04/29 22:56:02;;;;;;;22.50;16.80;;;;;;;11.47;92.37;96405.25;107084;1273;25277;-82
2023/04/29 22:59:28;;;;;;;18.50;15.70;;;;;;;11.42;92.50;96403.38;106697;1278;137468;-83
2023/04/29 23:02:55;;;;;;;15.30;13.70;;;;;;;11.42;92.75;96405.65;106905;1272;24261;-83
2023/04/29 23:06:22;;;;;;;15.10;13.60;;;;;;;11.43;92.79;96406.42;109649;1278;138300;-83
2023/04/29 23:09:32;;;;;;;;;;;;;;;;;;;;;
2023/04/29 23:12:59;;;;;;;14.50;13.10;;;;;;;11.62;92.99;96408.91;106900;1274;138088;-83
2023/04/29 23:16:19;;;;;;;12.20;10.90;;;;;;;11.65;93.07;96413.66;106927;1275;23017;-83
2023/04/29 23:19:45;;;;;;;15.10;13.60;;;;;;;11.48;92.32;96414.54;107009;1273;25230;-83
2023/04/29 23:22:53;;;;;;;;;;;;;;;;;;;;;
2023/04/29 23:26:19;;;;;;;;;;;;;;;;;;;;;
2023/04/29 23:29:47;;;;;;;10.60;9.60;;;;;;;11.30;92.73;96408.81;109217;1273;138940;-83
2023/04/29 23:33:14;;;;;;;13.40;12.10;;;;;;;11.21;93.22;96409.40;106977;1272;24269;-83
2023/04/29 23:36:39;;;;;;;13.00;11.70;;;;;;;11.11;93.50;96412.51;106747;1275;138784;-83
2023/04/29 23:39:57;;;;;;;;;;;;;;;;;;;;;
2023/04/29 23:43:21;;;;;;;;;;;;;;;;;;;;;
2023/04/29 23:46:48;;;;;;;;;;;;;;;;;;;;;
2023/04/29 23:50:00;;;;;;;15.70;14.00;;;;;;;10.83;95.59;96418.08;109705;1275;22295;-84
2023/04/29 23:53:11;;;;;;;;;;;;;;;;;;;;;
2023/04/29 23:56:38;;;;;;;;;;;;;;;;;;;;;
